sensor_id;sensor_type;location;lat;lon;timestamp;temperature;humidity
5834;DHT22;2943;48.012;10.968;2022-11-21T00:01:15;2.80;99.90
5834;DHT22;2943;48.012;10.968;2022-11-21T00:03:43;2.90;99.90
5834;DHT22;2943;48.012;10.968;2022-11-21T00:06:10;2.90;99.90
5834;DHT22;2943;48.012;10.968;2022-11-21T00:08:37;2.90;99.90
5834;DHT22;2943;48.012;10.968;2022-11-21T00:11:04;2.90;99.90
5834;DHT22;2943;48.012;10.968;2022-11-21T00:13:32;2.90;99.90
5834;DHT22;2943;48.012;10.968;2022-11-21T00:16:02;2.90;99.90
5834;DHT22;2943;48.012;10.968;2022-11-21T00:18:32;2.90;99.90
5834;DHT22;2943;48.012;10.968;2022-11-21T00:21:03;2.90;99.90
5834;DHT22;2943;48.012;10.968;2022-11-21T00:23:31;3.00;99.90
5834;DHT22;2943;48.012;10.968;2022-11-21T00:25:58;3.00;99.90
5834;DHT22;2943;48.012;10.968;2022-11-21T00:28:25;3.00;99.90
5834;DHT22;2943;48.012;10.968;2022-11-21T00:30:53;3.10;99.90
5834;DHT22;2943;48.012;10.968;2022-11-21T00:33:20;3.10;99.90
5834;DHT22;2943;48.012;10.968;2022-11-21T00:35:48;3.10;99.90
5834;DHT22;2943;48.012;10.968;2022-11-21T00:38:15;3.10;99.90
5834;DHT22;2943;48.012;10.968;2022-11-21T00:40:42;3.10;99.90
5834;DHT22;2943;48.012;10.968;2022-11-21T00:43:09;3.20;99.90
5834;DHT22;2943;48.012;10.968;2022-11-21T00:45:36;3.20;99.90
5834;DHT22;2943;48.012;10.968;2022-11-21T00:48:05;3.20;99.90
5834;DHT22;2943;48.012;10.968;2022-11-21T00:50:32;3.20;99.90
5834;DHT22;2943;48.012;10.968;2022-11-21T00:52:59;3.20;99.90
5834;DHT22;2943;48.012;10.968;2022-11-21T00:55:26;3.20;99.90
5834;DHT22;2943;48.012;10.968;2022-11-21T00:57:53;3.30;99.90
5834;DHT22;2943;48.012;10.968;2022-11-21T01:00:20;3.30;99.90
5834;DHT22;2943;48.012;10.968;2022-11-21T01:02:47;3.30;99.90
5834;DHT22;2943;48.012;10.968;2022-11-21T01:05:16;3.30;99.90
5834;DHT22;2943;48.012;10.968;2022-11-21T01:07:43;3.30;99.90
5834;DHT22;2943;48.012;10.968;2022-11-21T01:10:10;3.40;99.90
5834;DHT22;2943;48.012;10.968;2022-11-21T01:12:37;3.40;99.90
5834;DHT22;2943;48.012;10.968;2022-11-21T01:15:05;3.40;99.90
5834;DHT22;2943;48.012;10.968;2022-11-21T01:17:33;3.40;99.90
5834;DHT22;2943;48.012;10.968;2022-11-21T01:20:00;3.40;99.90
5834;DHT22;2943;48.012;10.968;2022-11-21T01:22:28;3.40;99.90
5834;DHT22;2943;48.012;10.968;2022-11-21T01:24:55;3.40;99.90
5834;DHT22;2943;48.012;10.968;2022-11-21T01:27:22;3.40;99.90
5834;DHT22;2943;48.012;10.968;2022-11-21T01:29:49;3.40;99.90
5834;DHT22;2943;48.012;10.968;2022-11-21T01:32:17;3.40;99.90
5834;DHT22;2943;48.012;10.968;2022-11-21T01:34:44;3.40;99.90
5834;DHT22;2943;48.012;10.968;2022-11-21T01:37:11;3.40;99.90
5834;DHT22;2943;48.012;10.968;2022-11-21T01:39:39;3.50;99.90
5834;DHT22;2943;48.012;10.968;2022-11-21T01:42:07;3.50;99.90
5834;DHT22;2943;48.012;10.968;2022-11-21T01:44:48;3.50;99.90
5834;DHT22;2943;48.012;10.968;2022-11-21T01:47:16;3.50;99.90
5834;DHT22;2943;48.012;10.968;2022-11-21T01:49:43;3.50;99.90
5834;DHT22;2943;48.012;10.968;2022-11-21T01:52:12;3.50;99.90
5834;DHT22;2943;48.012;10.968;2022-11-21T01:54:45;3.50;99.90
5834;DHT22;2943;48.012;10.968;2022-11-21T01:57:18;3.60;99.90
5834;DHT22;2943;48.012;10.968;2022-11-21T01:59:48;3.60;99.90
5834;DHT22;2943;48.012;10.968;2022-11-21T02:02:19;3.70;99.90
5834;DHT22;2943;48.012;10.968;2022-11-21T02:04:47;3.60;99.90
5834;DHT22;2943;48.012;10.968;2022-11-21T02:07:17;3.70;99.90
5834;DHT22;2943;48.012;10.968;2022-11-21T02:09:51;3.70;99.90
5834;DHT22;2943;48.012;10.968;2022-11-21T02:12:23;3.70;99.90
5834;DHT22;2943;48.012;10.968;2022-11-21T02:14:52;3.70;99.90
5834;DHT22;2943;48.012;10.968;2022-11-21T02:17:20;3.70;99.90
5834;DHT22;2943;48.012;10.968;2022-11-21T02:19:51;3.70;99.90
5834;DHT22;2943;48.012;10.968;2022-11-21T02:22:26;3.70;99.90
5834;DHT22;2943;48.012;10.968;2022-11-21T02:25:02;3.70;99.90
5834;DHT22;2943;48.012;10.968;2022-11-21T02:27:30;3.70;99.90
5834;DHT22;2943;48.012;10.968;2022-11-21T02:29:57;3.70;99.90
5834;DHT22;2943;48.012;10.968;2022-11-21T02:32:32;3.70;99.90
5834;DHT22;2943;48.012;10.968;2022-11-21T02:34:59;3.60;99.90
5834;DHT22;2943;48.012;10.968;2022-11-21T02:37:26;3.60;99.90
5834;DHT22;2943;48.012;10.968;2022-11-21T02:39:54;3.60;99.90
5834;DHT22;2943;48.012;10.968;2022-11-21T02:42:29;3.70;99.90
5834;DHT22;2943;48.012;10.968;2022-11-21T02:45:05;3.60;99.90
5834;DHT22;2943;48.012;10.968;2022-11-21T02:47:35;3.60;99.90
5834;DHT22;2943;48.012;10.968;2022-11-21T02:50:10;3.60;99.90
5834;DHT22;2943;48.012;10.968;2022-11-21T02:52:39;3.50;99.90
5834;DHT22;2943;48.012;10.968;2022-11-21T02:55:06;3.60;99.90
5834;DHT22;2943;48.012;10.968;2022-11-21T02:57:35;3.50;99.90
5834;DHT22;2943;48.012;10.968;2022-11-21T03:00:06;3.50;99.90
5834;DHT22;2943;48.012;10.968;2022-11-21T03:02:33;3.50;99.90
5834;DHT22;2943;48.012;10.968;2022-11-21T03:05:01;3.40;99.90
5834;DHT22;2943;48.012;10.968;2022-11-21T03:07:28;3.40;99.90
5834;DHT22;2943;48.012;10.968;2022-11-21T03:09:55;3.40;99.90
5834;DHT22;2943;48.012;10.968;2022-11-21T03:12:22;3.40;99.90
5834;DHT22;2943;48.012;10.968;2022-11-21T03:14:50;3.40;99.90
5834;DHT22;2943;48.012;10.968;2022-11-21T03:17:17;3.40;99.90
5834;DHT22;2943;48.012;10.968;2022-11-21T03:19:44;3.40;99.90
5834;DHT22;2943;48.012;10.968;2022-11-21T03:22:12;3.40;99.90
5834;DHT22;2943;48.012;10.968;2022-11-21T03:24:39;3.40;99.90
5834;DHT22;2943;48.012;10.968;2022-11-21T03:27:06;3.40;99.90
5834;DHT22;2943;48.012;10.968;2022-11-21T03:29:33;3.50;99.90
5834;DHT22;2943;48.012;10.968;2022-11-21T03:32:02;3.50;99.90
5834;DHT22;2943;48.012;10.968;2022-11-21T03:34:29;3.50;99.90
5834;DHT22;2943;48.012;10.968;2022-11-21T03:36:56;3.50;99.90
5834;DHT22;2943;48.012;10.968;2022-11-21T03:39:23;3.50;99.90
5834;DHT22;2943;48.012;10.968;2022-11-21T03:41:49;3.40;99.90
5834;DHT22;2943;48.012;10.968;2022-11-21T03:44:17;3.50;99.90
5834;DHT22;2943;48.012;10.968;2022-11-21T03:46:45;3.50;99.90
5834;DHT22;2943;48.012;10.968;2022-11-21T03:49:14;3.50;99.90
5834;DHT22;2943;48.012;10.968;2022-11-21T03:51:42;3.50;99.90
5834;DHT22;2943;48.012;10.968;2022-11-21T03:54:09;3.50;99.90
5834;DHT22;2943;48.012;10.968;2022-11-21T03:56:37;3.50;99.90
5834;DHT22;2943;48.012;10.968;2022-11-21T03:59:05;3.50;99.90
5834;DHT22;2943;48.012;10.968;2022-11-21T04:01:32;3.50;99.90
5834;DHT22;2943;48.012;10.968;2022-11-21T04:03:59;3.50;99.90
5834;DHT22;2943;48.012;10.968;2022-11-21T04:06:28;3.50;99.90
5834;DHT22;2943;48.012;10.968;2022-11-21T04:08:56;3.50;99.90
5834;DHT22;2943;48.012;10.968;2022-11-21T04:11:23;3.50;99.90
5834;DHT22;2943;48.012;10.968;2022-11-21T04:13:50;3.50;99.90
5834;DHT22;2943;48.012;10.968;2022-11-21T04:16:17;3.50;99.90
5834;DHT22;2943;48.012;10.968;2022-11-21T04:18:44;3.50;99.90
5834;DHT22;2943;48.012;10.968;2022-11-21T04:21:12;3.40;99.90
5834;DHT22;2943;48.012;10.968;2022-11-21T04:23:40;3.40;99.90
5834;DHT22;2943;48.012;10.968;2022-11-21T04:26:07;3.30;99.90
5834;DHT22;2943;48.012;10.968;2022-11-21T04:28:34;3.30;99.90
5834;DHT22;2943;48.012;10.968;2022-11-21T04:31:02;3.20;99.90
5834;DHT22;2943;48.012;10.968;2022-11-21T04:33:29;3.10;99.90
5834;DHT22;2943;48.012;10.968;2022-11-21T04:35:56;3.00;99.90
5834;DHT22;2943;48.012;10.968;2022-11-21T04:38:23;3.00;99.90
5834;DHT22;2943;48.012;10.968;2022-11-21T04:40:51;3.00;99.90
5834;DHT22;2943;48.012;10.968;2022-11-21T04:43:18;3.00;99.90
5834;DHT22;2943;48.012;10.968;2022-11-21T04:45:45;3.00;99.90
5834;DHT22;2943;48.012;10.968;2022-11-21T04:48:12;2.90;99.90
5834;DHT22;2943;48.012;10.968;2022-11-21T04:50:39;3.00;99.90
5834;DHT22;2943;48.012;10.968;2022-11-21T04:53:06;3.00;99.90
5834;DHT22;2943;48.012;10.968;2022-11-21T04:55:33;3.00;99.90
5834;DHT22;2943;48.012;10.968;2022-11-21T04:58:01;3.00;99.90
5834;DHT22;2943;48.012;10.968;2022-11-21T05:00:29;3.00;99.90
5834;DHT22;2943;48.012;10.968;2022-11-21T05:03:01;2.90;99.90
5834;DHT22;2943;48.012;10.968;2022-11-21T05:05:28;3.00;99.90
5834;DHT22;2943;48.012;10.968;2022-11-21T05:07:55;3.00;99.90
5834;DHT22;2943;48.012;10.968;2022-11-21T05:10:22;3.10;99.90
5834;DHT22;2943;48.012;10.968;2022-11-21T05:12:55;3.20;99.90
5834;DHT22;2943;48.012;10.968;2022-11-21T05:15:42;3.20;99.90
5834;DHT22;2943;48.012;10.968;2022-11-21T05:18:09;3.20;99.90
5834;DHT22;2943;48.012;10.968;2022-11-21T05:20:36;3.20;99.90
5834;DHT22;2943;48.012;10.968;2022-11-21T05:23:03;3.20;99.90
5834;DHT22;2943;48.012;10.968;2022-11-21T05:25:30;3.30;99.90
5834;DHT22;2943;48.012;10.968;2022-11-21T05:27:57;3.30;99.90
5834;DHT22;2943;48.012;10.968;2022-11-21T05:30:24;3.30;99.90
5834;DHT22;2943;48.012;10.968;2022-11-21T05:32:52;3.30;99.90
5834;DHT22;2943;48.012;10.968;2022-11-21T05:35:19;3.40;99.90
5834;DHT22;2943;48.012;10.968;2022-11-21T05:37:46;3.30;99.90
5834;DHT22;2943;48.012;10.968;2022-11-21T05:40:13;3.30;99.90
5834;DHT22;2943;48.012;10.968;2022-11-21T05:42:41;3.30;99.90
5834;DHT22;2943;48.012;10.968;2022-11-21T05:45:25;3.40;99.90
5834;DHT22;2943;48.012;10.968;2022-11-21T05:47:54;3.30;99.90
5834;DHT22;2943;48.012;10.968;2022-11-21T05:50:21;3.30;99.90
5834;DHT22;2943;48.012;10.968;2022-11-21T05:52:48;3.30;99.90
5834;DHT22;2943;48.012;10.968;2022-11-21T05:55:15;3.30;99.90
5834;DHT22;2943;48.012;10.968;2022-11-21T05:57:42;3.30;99.90
5834;DHT22;2943;48.012;10.968;2022-11-21T06:00:10;3.30;99.90
5834;DHT22;2943;48.012;10.968;2022-11-21T06:02:37;3.30;99.90
5834;DHT22;2943;48.012;10.968;2022-11-21T06:05:23;3.30;99.90
5834;DHT22;2943;48.012;10.968;2022-11-21T06:07:50;3.30;99.90
5834;DHT22;2943;48.012;10.968;2022-11-21T06:10:17;3.30;99.90
5834;DHT22;2943;48.012;10.968;2022-11-21T06:12:44;3.20;99.90
5834;DHT22;2943;48.012;10.968;2022-11-21T06:15:11;3.20;99.90
5834;DHT22;2943;48.012;10.968;2022-11-21T06:17:38;3.20;99.90
5834;DHT22;2943;48.012;10.968;2022-11-21T06:20:06;3.20;99.90
5834;DHT22;2943;48.012;10.968;2022-11-21T06:22:35;3.10;99.90
5834;DHT22;2943;48.012;10.968;2022-11-21T06:25:01;3.00;99.90
5834;DHT22;2943;48.012;10.968;2022-11-21T06:27:31;3.00;99.90
5834;DHT22;2943;48.012;10.968;2022-11-21T06:29:58;2.90;99.90
5834;DHT22;2943;48.012;10.968;2022-11-21T06:32:25;2.80;99.90
5834;DHT22;2943;48.012;10.968;2022-11-21T06:34:52;2.80;99.90
5834;DHT22;2943;48.012;10.968;2022-11-21T06:37:20;2.80;99.90
5834;DHT22;2943;48.012;10.968;2022-11-21T06:39:49;2.80;99.90
5834;DHT22;2943;48.012;10.968;2022-11-21T06:42:16;2.70;99.90
5834;DHT22;2943;48.012;10.968;2022-11-21T06:44:43;2.70;99.90
5834;DHT22;2943;48.012;10.968;2022-11-21T06:47:10;2.70;99.90
5834;DHT22;2943;48.012;10.968;2022-11-21T06:49:37;2.60;99.90
5834;DHT22;2943;48.012;10.968;2022-11-21T06:52:04;2.60;99.90
5834;DHT22;2943;48.012;10.968;2022-11-21T06:54:31;2.60;99.90
5834;DHT22;2943;48.012;10.968;2022-11-21T06:56:59;2.50;99.90
5834;DHT22;2943;48.012;10.968;2022-11-21T06:59:26;2.60;99.90
5834;DHT22;2943;48.012;10.968;2022-11-21T07:01:54;2.60;99.90
5834;DHT22;2943;48.012;10.968;2022-11-21T07:04:20;2.60;99.90
5834;DHT22;2943;48.012;10.968;2022-11-21T07:06:47;2.60;99.90
5834;DHT22;2943;48.012;10.968;2022-11-21T07:09:14;2.60;99.90
5834;DHT22;2943;48.012;10.968;2022-11-21T07:11:41;2.60;99.90
5834;DHT22;2943;48.012;10.968;2022-11-21T07:14:10;2.60;99.90
5834;DHT22;2943;48.012;10.968;2022-11-21T07:16:36;2.70;99.90
5834;DHT22;2943;48.012;10.968;2022-11-21T07:19:03;2.70;99.90
5834;DHT22;2943;48.012;10.968;2022-11-21T07:21:31;2.70;99.90
5834;DHT22;2943;48.012;10.968;2022-11-21T07:23:58;2.80;99.90
5834;DHT22;2943;48.012;10.968;2022-11-21T07:26:25;2.80;99.90
5834;DHT22;2943;48.012;10.968;2022-11-21T07:28:52;2.70;99.90
5834;DHT22;2943;48.012;10.968;2022-11-21T07:31:20;2.70;99.90
5834;DHT22;2943;48.012;10.968;2022-11-21T07:33:47;2.70;99.90
5834;DHT22;2943;48.012;10.968;2022-11-21T07:36:14;2.80;99.90
5834;DHT22;2943;48.012;10.968;2022-11-21T07:38:41;2.70;99.90
5834;DHT22;2943;48.012;10.968;2022-11-21T07:41:08;2.70;99.90
5834;DHT22;2943;48.012;10.968;2022-11-21T07:43:35;2.70;99.90
5834;DHT22;2943;48.012;10.968;2022-11-21T07:46:02;2.70;99.90
5834;DHT22;2943;48.012;10.968;2022-11-21T07:48:30;2.70;99.90
5834;DHT22;2943;48.012;10.968;2022-11-21T07:50:57;2.80;99.90
5834;DHT22;2943;48.012;10.968;2022-11-21T07:53:24;2.70;99.90
5834;DHT22;2943;48.012;10.968;2022-11-21T07:55:51;2.70;99.90
5834;DHT22;2943;48.012;10.968;2022-11-21T07:58:18;2.70;99.90
5834;DHT22;2943;48.012;10.968;2022-11-21T08:00:45;2.70;99.90
5834;DHT22;2943;48.012;10.968;2022-11-21T08:03:12;2.80;99.90
5834;DHT22;2943;48.012;10.968;2022-11-21T08:05:42;2.80;99.90
5834;DHT22;2943;48.012;10.968;2022-11-21T08:08:10;2.80;99.90
5834;DHT22;2943;48.012;10.968;2022-11-21T08:10:39;2.90;99.90
5834;DHT22;2943;48.012;10.968;2022-11-21T08:13:06;2.90;99.90
5834;DHT22;2943;48.012;10.968;2022-11-21T08:15:33;3.00;99.90
5834;DHT22;2943;48.012;10.968;2022-11-21T08:18:06;3.10;99.90
5834;DHT22;2943;48.012;10.968;2022-11-21T08:20:33;3.10;99.90
5834;DHT22;2943;48.012;10.968;2022-11-21T08:23:01;3.10;99.90
5834;DHT22;2943;48.012;10.968;2022-11-21T08:25:29;3.20;99.90
5834;DHT22;2943;48.012;10.968;2022-11-21T08:27:56;3.30;99.90
5834;DHT22;2943;48.012;10.968;2022-11-21T08:30:27;3.30;99.90
5834;DHT22;2943;48.012;10.968;2022-11-21T08:32:54;3.40;99.90
5834;DHT22;2943;48.012;10.968;2022-11-21T08:35:21;3.40;99.90
5834;DHT22;2943;48.012;10.968;2022-11-21T08:37:48;3.40;99.90
5834;DHT22;2943;48.012;10.968;2022-11-21T08:40:16;3.50;99.90
5834;DHT22;2943;48.012;10.968;2022-11-21T08:42:43;3.50;99.90
5834;DHT22;2943;48.012;10.968;2022-11-21T08:45:10;3.50;99.90
5834;DHT22;2943;48.012;10.968;2022-11-21T08:47:39;3.60;99.90
5834;DHT22;2943;48.012;10.968;2022-11-21T08:50:06;3.60;99.90
5834;DHT22;2943;48.012;10.968;2022-11-21T08:52:33;3.70;99.90
5834;DHT22;2943;48.012;10.968;2022-11-21T08:55:01;3.70;99.90
5834;DHT22;2943;48.012;10.968;2022-11-21T08:57:29;3.80;99.90
5834;DHT22;2943;48.012;10.968;2022-11-21T08:59:59;3.90;99.90
5834;DHT22;2943;48.012;10.968;2022-11-21T09:02:29;3.90;99.90
5834;DHT22;2943;48.012;10.968;2022-11-21T09:04:56;4.00;99.90
5834;DHT22;2943;48.012;10.968;2022-11-21T09:07:24;4.00;99.90
5834;DHT22;2943;48.012;10.968;2022-11-21T09:09:51;4.10;99.90
5834;DHT22;2943;48.012;10.968;2022-11-21T09:12:18;4.20;99.90
5834;DHT22;2943;48.012;10.968;2022-11-21T09:14:46;4.20;99.90
5834;DHT22;2943;48.012;10.968;2022-11-21T09:17:30;4.20;99.90
5834;DHT22;2943;48.012;10.968;2022-11-21T09:20:15;4.30;99.90
5834;DHT22;2943;48.012;10.968;2022-11-21T09:22:41;4.30;99.90
5834;DHT22;2943;48.012;10.968;2022-11-21T09:25:09;4.40;99.90
5834;DHT22;2943;48.012;10.968;2022-11-21T09:27:35;4.40;99.90
5834;DHT22;2943;48.012;10.968;2022-11-21T09:30:05;4.50;99.90
5834;DHT22;2943;48.012;10.968;2022-11-21T09:32:42;4.50;99.90
5834;DHT22;2943;48.012;10.968;2022-11-21T09:35:08;4.60;99.90
5834;DHT22;2943;48.012;10.968;2022-11-21T09:37:36;4.60;99.90
5834;DHT22;2943;48.012;10.968;2022-11-21T09:40:13;4.60;99.90
5834;DHT22;2943;48.012;10.968;2022-11-21T09:43:01;4.70;99.90
5834;DHT22;2943;48.012;10.968;2022-11-21T09:45:33;4.70;99.90
5834;DHT22;2943;48.012;10.968;2022-11-21T09:48:07;4.80;99.90
5834;DHT22;2943;48.012;10.968;2022-11-21T09:50:36;4.80;99.90
5834;DHT22;2943;48.012;10.968;2022-11-21T09:53:07;4.80;99.90
5834;DHT22;2943;48.012;10.968;2022-11-21T09:55:41;4.80;99.90
5834;DHT22;2943;48.012;10.968;2022-11-21T09:58:18;4.90;99.90
5834;DHT22;2943;48.012;10.968;2022-11-21T10:00:49;4.90;99.90
5834;DHT22;2943;48.012;10.968;2022-11-21T10:03:18;4.90;99.90
5834;DHT22;2943;48.012;10.968;2022-11-21T10:05:50;4.90;99.90
5834;DHT22;2943;48.012;10.968;2022-11-21T10:08:27;5.00;99.90
5834;DHT22;2943;48.012;10.968;2022-11-21T10:11:03;5.00;99.90
5834;DHT22;2943;48.012;10.968;2022-11-21T10:13:43;5.10;99.90
5834;DHT22;2943;48.012;10.968;2022-11-21T10:16:18;5.10;99.90
5834;DHT22;2943;48.012;10.968;2022-11-21T10:19:00;5.10;99.90
5834;DHT22;2943;48.012;10.968;2022-11-21T10:21:45;5.20;99.90
5834;DHT22;2943;48.012;10.968;2022-11-21T10:24:27;5.20;99.90
5834;DHT22;2943;48.012;10.968;2022-11-21T10:27:01;5.30;99.90
5834;DHT22;2943;48.012;10.968;2022-11-21T10:29:34;5.30;99.90
5834;DHT22;2943;48.012;10.968;2022-11-21T10:32:12;5.30;99.90
5834;DHT22;2943;48.012;10.968;2022-11-21T10:34:41;5.30;99.90
5834;DHT22;2943;48.012;10.968;2022-11-21T10:37:15;5.40;99.90
5834;DHT22;2943;48.012;10.968;2022-11-21T10:39:47;5.30;99.90
5834;DHT22;2943;48.012;10.968;2022-11-21T10:42:21;5.40;99.90
5834;DHT22;2943;48.012;10.968;2022-11-21T10:44:53;5.50;99.90
5834;DHT22;2943;48.012;10.968;2022-11-21T10:47:48;5.50;99.90
5834;DHT22;2943;48.012;10.968;2022-11-21T10:50:27;5.50;99.90
5834;DHT22;2943;48.012;10.968;2022-11-21T10:53:04;5.40;99.90
5834;DHT22;2943;48.012;10.968;2022-11-21T10:56:00;5.40;99.90
5834;DHT22;2943;48.012;10.968;2022-11-21T10:58:39;5.40;99.90
5834;DHT22;2943;48.012;10.968;2022-11-21T11:01:22;5.40;99.90
5834;DHT22;2943;48.012;10.968;2022-11-21T11:04:06;5.40;99.90
5834;DHT22;2943;48.012;10.968;2022-11-21T11:06:34;5.40;99.90
5834;DHT22;2943;48.012;10.968;2022-11-21T11:09:02;5.30;99.90
5834;DHT22;2943;48.012;10.968;2022-11-21T11:11:29;5.20;99.90
5834;DHT22;2943;48.012;10.968;2022-11-21T11:13:58;5.20;99.90
5834;DHT22;2943;48.012;10.968;2022-11-21T11:16:27;5.20;99.90
5834;DHT22;2943;48.012;10.968;2022-11-21T11:18:57;5.20;99.90
5834;DHT22;2943;48.012;10.968;2022-11-21T11:21:28;5.30;99.90
5834;DHT22;2943;48.012;10.968;2022-11-21T11:24:17;5.20;99.90
5834;DHT22;2943;48.012;10.968;2022-11-21T11:26:51;5.10;99.90
5834;DHT22;2943;48.012;10.968;2022-11-21T11:29:19;5.10;99.90
5834;DHT22;2943;48.012;10.968;2022-11-21T11:31:53;5.00;99.90
5834;DHT22;2943;48.012;10.968;2022-11-21T11:34:22;4.90;99.90
5834;DHT22;2943;48.012;10.968;2022-11-21T11:36:59;5.00;99.90
5834;DHT22;2943;48.012;10.968;2022-11-21T11:39:40;4.90;99.90
5834;DHT22;2943;48.012;10.968;2022-11-21T11:42:24;5.00;99.90
5834;DHT22;2943;48.012;10.968;2022-11-21T11:45:28;5.00;99.90
5834;DHT22;2943;48.012;10.968;2022-11-21T11:48:14;5.00;99.90
5834;DHT22;2943;48.012;10.968;2022-11-21T11:50:46;5.00;99.90
5834;DHT22;2943;48.012;10.968;2022-11-21T11:53:18;5.00;99.90
5834;DHT22;2943;48.012;10.968;2022-11-21T11:55:50;5.10;99.90
5834;DHT22;2943;48.012;10.968;2022-11-21T11:58:24;5.10;99.90
5834;DHT22;2943;48.012;10.968;2022-11-21T12:00:59;5.10;99.90
5834;DHT22;2943;48.012;10.968;2022-11-21T12:03:36;5.20;99.90
5834;DHT22;2943;48.012;10.968;2022-11-21T12:06:10;5.20;99.90
5834;DHT22;2943;48.012;10.968;2022-11-21T12:08:45;5.20;99.90
5834;DHT22;2943;48.012;10.968;2022-11-21T12:11:28;5.30;99.90
5834;DHT22;2943;48.012;10.968;2022-11-21T12:14:32;5.30;99.90
5834;DHT22;2943;48.012;10.968;2022-11-21T12:17:24;5.30;99.90
5834;DHT22;2943;48.012;10.968;2022-11-21T12:19:53;5.30;99.90
5834;DHT22;2943;48.012;10.968;2022-11-21T12:22:20;5.40;99.90
5834;DHT22;2943;48.012;10.968;2022-11-21T12:24:49;5.40;99.90
5834;DHT22;2943;48.012;10.968;2022-11-21T12:27:27;5.40;99.90
5834;DHT22;2943;48.012;10.968;2022-11-21T12:30:24;5.40;99.90
5834;DHT22;2943;48.012;10.968;2022-11-21T12:32:55;5.40;99.90
5834;DHT22;2943;48.012;10.968;2022-11-21T12:35:44;5.40;99.90
5834;DHT22;2943;48.012;10.968;2022-11-21T12:38:37;5.40;99.90
5834;DHT22;2943;48.012;10.968;2022-11-21T12:41:15;5.50;99.90
5834;DHT22;2943;48.012;10.968;2022-11-21T12:44:14;5.50;99.90
5834;DHT22;2943;48.012;10.968;2022-11-21T12:46:54;5.50;99.90
5834;DHT22;2943;48.012;10.968;2022-11-21T12:49:29;5.50;99.90
5834;DHT22;2943;48.012;10.968;2022-11-21T12:52:20;5.50;99.90
5834;DHT22;2943;48.012;10.968;2022-11-21T12:55:12;5.50;99.90
5834;DHT22;2943;48.012;10.968;2022-11-21T12:57:53;5.50;99.90
5834;DHT22;2943;48.012;10.968;2022-11-21T13:00:26;5.40;99.90
5834;DHT22;2943;48.012;10.968;2022-11-21T13:03:23;5.40;99.90
5834;DHT22;2943;48.012;10.968;2022-11-21T13:05:55;5.50;99.90
5834;DHT22;2943;48.012;10.968;2022-11-21T13:08:25;5.50;99.90
5834;DHT22;2943;48.012;10.968;2022-11-21T13:11:01;5.60;99.90
5834;DHT22;2943;48.012;10.968;2022-11-21T13:13:46;5.80;99.90
5834;DHT22;2943;48.012;10.968;2022-11-21T13:16:18;5.80;99.90
5834;DHT22;2943;48.012;10.968;2022-11-21T13:19:11;5.90;99.90
5834;DHT22;2943;48.012;10.968;2022-11-21T13:21:41;6.00;99.90
5834;DHT22;2943;48.012;10.968;2022-11-21T13:24:09;6.10;99.90
5834;DHT22;2943;48.012;10.968;2022-11-21T13:26:52;6.20;99.90
5834;DHT22;2943;48.012;10.968;2022-11-21T13:29:22;6.20;99.90
5834;DHT22;2943;48.012;10.968;2022-11-21T13:31:49;6.20;99.90
5834;DHT22;2943;48.012;10.968;2022-11-21T13:34:35;6.20;99.90
5834;DHT22;2943;48.012;10.968;2022-11-21T13:37:02;6.20;99.90
5834;DHT22;2943;48.012;10.968;2022-11-21T13:39:31;6.20;99.90
5834;DHT22;2943;48.012;10.968;2022-11-21T13:42:14;6.20;99.90
5834;DHT22;2943;48.012;10.968;2022-11-21T13:45:39;6.20;99.90
5834;DHT22;2943;48.012;10.968;2022-11-21T13:48:35;6.20;99.90
5834;DHT22;2943;48.012;10.968;2022-11-21T13:51:20;6.10;99.90
5834;DHT22;2943;48.012;10.968;2022-11-21T13:54:19;6.10;99.90
5834;DHT22;2943;48.012;10.968;2022-11-21T13:57:04;6.10;99.90
5834;DHT22;2943;48.012;10.968;2022-11-21T13:59:48;6.10;99.90
5834;DHT22;2943;48.012;10.968;2022-11-21T14:02:39;6.10;99.90
5834;DHT22;2943;48.012;10.968;2022-11-21T14:05:40;6.10;99.90
5834;DHT22;2943;48.012;10.968;2022-11-21T14:08:17;6.10;99.90
5834;DHT22;2943;48.012;10.968;2022-11-21T14:10:46;6.10;99.90
5834;DHT22;2943;48.012;10.968;2022-11-21T14:13:21;6.10;99.90
5834;DHT22;2943;48.012;10.968;2022-11-21T14:15:57;6.10;99.90
5834;DHT22;2943;48.012;10.968;2022-11-21T14:18:27;6.10;99.90
5834;DHT22;2943;48.012;10.968;2022-11-21T14:20:57;6.10;99.90
5834;DHT22;2943;48.012;10.968;2022-11-21T14:23:27;6.20;99.90
5834;DHT22;2943;48.012;10.968;2022-11-21T14:25:59;6.20;99.90
5834;DHT22;2943;48.012;10.968;2022-11-21T14:28:28;6.10;99.90
5834;DHT22;2943;48.012;10.968;2022-11-21T14:30:56;6.10;99.90
5834;DHT22;2943;48.012;10.968;2022-11-21T14:33:27;6.00;99.90
5834;DHT22;2943;48.012;10.968;2022-11-21T14:35:58;6.00;99.90
5834;DHT22;2943;48.012;10.968;2022-11-21T14:38:27;6.00;99.90
5834;DHT22;2943;48.012;10.968;2022-11-21T14:41:17;6.00;99.90
5834;DHT22;2943;48.012;10.968;2022-11-21T14:43:48;6.00;99.90
5834;DHT22;2943;48.012;10.968;2022-11-21T14:46:15;5.90;99.90
5834;DHT22;2943;48.012;10.968;2022-11-21T14:48:47;5.90;99.90
5834;DHT22;2943;48.012;10.968;2022-11-21T14:51:15;5.90;99.90
5834;DHT22;2943;48.012;10.968;2022-11-21T14:53:43;5.80;99.90
5834;DHT22;2943;48.012;10.968;2022-11-21T14:56:19;5.60;99.90
5834;DHT22;2943;48.012;10.968;2022-11-21T14:58:47;5.60;99.90
5834;DHT22;2943;48.012;10.968;2022-11-21T15:01:19;5.50;99.90
5834;DHT22;2943;48.012;10.968;2022-11-21T15:03:55;5.30;99.90
5834;DHT22;2943;48.012;10.968;2022-11-21T15:06:22;5.30;99.90
5834;DHT22;2943;48.012;10.968;2022-11-21T15:08:53;5.20;99.90
5834;DHT22;2943;48.012;10.968;2022-11-21T15:11:23;5.10;99.90
5834;DHT22;2943;48.012;10.968;2022-11-21T15:13:54;5.00;99.90
5834;DHT22;2943;48.012;10.968;2022-11-21T15:16:23;5.00;99.90
5834;DHT22;2943;48.012;10.968;2022-11-21T15:18:50;4.90;99.90
5834;DHT22;2943;48.012;10.968;2022-11-21T15:21:18;4.80;99.90
5834;DHT22;2943;48.012;10.968;2022-11-21T15:23:46;4.70;99.90
5834;DHT22;2943;48.012;10.968;2022-11-21T15:26:27;4.60;99.90
5834;DHT22;2943;48.012;10.968;2022-11-21T15:28:54;4.50;99.90
5834;DHT22;2943;48.012;10.968;2022-11-21T15:31:21;4.30;99.90
5834;DHT22;2943;48.012;10.968;2022-11-21T15:33:59;4.20;99.90
5834;DHT22;2943;48.012;10.968;2022-11-21T15:36:28;4.10;99.90
5834;DHT22;2943;48.012;10.968;2022-11-21T15:39:00;4.10;99.90
5834;DHT22;2943;48.012;10.968;2022-11-21T15:41:29;4.10;99.90
5834;DHT22;2943;48.012;10.968;2022-11-21T15:44:18;4.00;99.90
5834;DHT22;2943;48.012;10.968;2022-11-21T15:46:50;4.00;99.90
5834;DHT22;2943;48.012;10.968;2022-11-21T15:49:17;4.00;99.90
5834;DHT22;2943;48.012;10.968;2022-11-21T15:51:47;4.00;99.90
5834;DHT22;2943;48.012;10.968;2022-11-21T15:54:18;3.90;99.90
5834;DHT22;2943;48.012;10.968;2022-11-21T15:56:45;3.90;99.90
5834;DHT22;2943;48.012;10.968;2022-11-21T15:59:13;3.80;99.90
5834;DHT22;2943;48.012;10.968;2022-11-21T16:01:40;3.70;99.90
5834;DHT22;2943;48.012;10.968;2022-11-21T16:04:09;3.80;99.90
5834;DHT22;2943;48.012;10.968;2022-11-21T16:06:36;3.70;99.90
5834;DHT22;2943;48.012;10.968;2022-11-21T16:09:04;3.70;99.90
5834;DHT22;2943;48.012;10.968;2022-11-21T16:11:33;3.70;99.90
5834;DHT22;2943;48.012;10.968;2022-11-21T16:14:03;3.50;99.90
5834;DHT22;2943;48.012;10.968;2022-11-21T16:16:33;3.40;99.90
5834;DHT22;2943;48.012;10.968;2022-11-21T16:19:00;3.40;99.90
5834;DHT22;2943;48.012;10.968;2022-11-21T16:21:27;3.30;99.90
5834;DHT22;2943;48.012;10.968;2022-11-21T16:23:55;3.30;99.90
5834;DHT22;2943;48.012;10.968;2022-11-21T16:26:23;3.20;99.90
5834;DHT22;2943;48.012;10.968;2022-11-21T16:28:52;3.10;99.90